Overview Statistics Trail Chart Weather Telemetry Raw packets
 

This is the latest recevied weather packets stored in our database for station/object 4S6DRJ-13. If no packets are shown the sender has not sent any weather packets the latest 10 day(s).

<< 220 221 222 223 224 225 226 >>
Time Temp. Humidity Pressure Rain* Wind** Luminosity Snow
1788141037 27.78° C 83% 1009.7 hPa 0 mm 0.89 m/s, 263° 87 W/m² -
1788140963 27.78° C 83% 1009.7 hPa 0 mm 0.89 m/s, 206° 80 W/m² -
1788140902 27.78° C 82% 1009.7 hPa 0 mm 1.34 m/s, 208° 79 W/m² -
1788140841 27.78° C 83% 1009.8 hPa 0 mm 0.89 m/s, 210° 75 W/m² -
1788140780 27.78° C 82% 1009.7 hPa 0 mm 1.34 m/s, 292° 67 W/m² -
1788140719 27.78° C 83% 1009.7 hPa 0 mm 0.89 m/s, 234° 70 W/m² -
1788140658 27.78° C 83% 1009.5 hPa 0 mm 1.34 m/s, 280° 86 W/m² -
1788140597 27.78° C 82% 1009.7 hPa 0 mm 0.89 m/s, 306° 94 W/m² -
1788140536 27.78° C 83% 1009.8 hPa 0 mm 1.34 m/s, 329° 91 W/m² -
1788140475 27.78° C 83% 1009.6 hPa 0 mm 0.89 m/s, 211° 86 W/m² -
1788140415 27.78° C 83% 1009.6 hPa 0 mm 1.34 m/s, 342° 78 W/m² -
1788140353 27.78° C 83% 1009.6 hPa 0 mm 0.45 m/s, 261° 79 W/m² -
1788140292 27.78° C 83% 1009.5 hPa 0 mm 0.45 m/s, 266° 81 W/m² -
1788140231 27.78° C 83% 1009.6 hPa 0 mm 0.45 m/s, 212° 74 W/m² -
1788140170 27.78° C 83% 1009.5 hPa 0 mm 0.45 m/s, 195° 67 W/m² -
1788140109 27.78° C 83% 1009.5 hPa 0 mm 0.89 m/s, 222° 72 W/m² -
1788140048 27.78° C 83% 1009.6 hPa 0 mm 1.34 m/s, 266° 86 W/m² -
1788139987 27.78° C 83% 1009.5 hPa 0 mm 1.34 m/s, 287° 95 W/m² -
1788139925 27.78° C 83% 1009.6 hPa 0 mm 1.34 m/s, 287° 93 W/m² -
1788139864 27.78° C 83% 1009.6 hPa 0 mm 0.45 m/s, 102° 85 W/m² -
1788139803 27.78° C 83% 1009.5 hPa 0 mm 0.89 m/s, 242° 79 W/m² -
1788139742 27.78° C 83% 1009.4 hPa 0 mm 0.89 m/s, 243° 75 W/m² -
1788139681 27.78° C 83% 1009.5 hPa 0 mm 0.45 m/s, 230° 74 W/m² -
1788139620 27.78° C 83% 1009.6 hPa 0 mm 0.89 m/s, 253° 72 W/m² -
1788139559 27.78° C 83% 1009.5 hPa 0 mm 0.45 m/s, 256° 71 W/m² -

* Rain latest hour (hover to see other rain measurements)
** Current wind speed in m/s (hover to see current wind gust speed)